Terminal Aerodrome Forecast
Issued by NWS Charleston, WV

Current Version | Previous Version | Text Only | Print | Product List | Glossary Off
Versions: 1 2 3 4 5 6 7 8 9 10 11 12 13 14 15 16 17 18 19 20 21 22

000
FTUS41 KRLX 220814 AAA
TAFHTS
TAF AMD
KHTS 220814Z 2208/2306 32012G15KT P6SM -RA OVC100
     FM220900 32006KT P6SM BKN025
     FM221200 34006KT P6SM SCT025
     FM221500 36006KT P6SM FEW140
     FM222100 36004KT P6SM SKC
     FM230000 00000KT P6SM SKC=

USA.gov is the U.S. government's official web portal to all federal, state and local government web resources and services.